Terminal Aerodrome Forecast
Issued by NWS

Home | Current Version | Previous Version | Text Only | Print | Product List | Glossary On
Versions: 1 2 3 4 5 6 7 8 9 10 11 12 13 14 15 16
000
FTUS46 KSEW 220100 AAA
TAFCLM
TAF AMD
KCLM 220134Z 2202/2224 26008KT P6SM SCT090 OVC150
     FM221200 25010KT P6SM OVC030
     FM221800 27008KT P6SM SCT030 SCT100=

USA.gov is the U.S. government's official web portal to all federal, state and local government web resources and services.